Back to Top

Language: 

My Weather Underground Personal Weather Station Historical Data with Graphs...

Delerius Weather Station Historical Data
Daily Summary for March 10, 2018 Units:  Both    English   Metric
« Previous Day
Next Day »
Daily Weekly Monthly Yearly Custom
  High: Low: Average:
Temperature: 54.9 °F /  12.7 °C 41.7 °F /  5.4 °C 47.1 °F /  8.4 °C
Dew Point: 53.0 °F /  11.7 °C 40.7 °F /  4.8 °C 45.2 °F /  7.3 °C
Humidity: 98 % 82 % 93 %
Wind Speed: 10.0 mph /  16.1 km/h - 2.8 mph /  4.5 km/h
Wind Gust: 16.0 mph /  25.7 km/h - -
Wind:- - South
Pressure: 29.36 in /  994.1 hPa 29.25 in /  990.4 hPa -
Precipitation: 0.24 in /  6.1 mm    
Historical Graphs
 
 
Tabular Data for March 10, 2018
Time Temperature Dew Point Pressure Wind Wind Speed Wind Gust Humidity Rainfall Rate (Hourly) solar Conditions
00:02 41.7 °F /  5.4 °C 40.7 °F /  4.8 °C 29.36 in /  994.1 hPa ESE 3.0 mph /  4.8 km/h 8.0 mph /  12.9 km/h 96 % 0.06 in /  1.52 mm 0 W/m2
00:07 41.9 °F /  5.5 °C 40.8 °F /  4.9 °C 29.36 in /  994.1 hPa East 2.0 mph /  3.2 km/h 4.0 mph /  6.4 km/h 96 % 0.06 in /  1.52 mm 0 W/m2
00:12 41.7 °F /  5.4 °C 40.7 °F /  4.8 °C 29.35 in /  993.8 hPa East 3.0 mph /  4.8 km/h 6.0 mph /  9.7 km/h 96 % 0.05 in /  1.27 mm 0 W/m2
00:17 41.7 °F /  5.4 °C 40.7 °F /  4.8 °C 29.35 in /  993.8 hPa East 2.0 mph /  3.2 km/h 6.0 mph /  9.7 km/h 96 % 0.05 in /  1.27 mm 0 W/m2
00:22 41.7 °F /  5.4 °C 40.7 °F /  4.8 °C 29.35 in /  993.8 hPa ENE 3.0 mph /  4.8 km/h 5.0 mph /  8 km/h 96 % 0.05 in /  1.27 mm 0 W/m2
00:27 41.7 °F /  5.4 °C 40.7 °F /  4.8 °C 29.35 in /  993.8 hPa East 4.0 mph /  6.4 km/h 8.0 mph /  12.9 km/h 96 % 0.04 in /  1.02 mm 0 W/m2
00:32 41.7 °F /  5.4 °C 40.7 °F /  4.8 °C 29.34 in /  993.5 hPa ENE 2.0 mph /  3.2 km/h 8.0 mph /  12.9 km/h 96 % 0.04 in /  1.02 mm 0 W/m2
00:37 41.7 °F /  5.4 °C 40.7 °F /  4.8 °C 29.34 in /  993.5 hPa ENE 2.0 mph /  3.2 km/h 8.0 mph /  12.9 km/h 96 % 0.03 in /  0.76 mm 0 W/m2
00:42 41.7 °F /  5.4 °C 40.7 °F /  4.8 °C 29.34 in /  993.5 hPa East 2.0 mph /  3.2 km/h 5.0 mph /  8 km/h 96 % 0.02 in /  0.51 mm 0 W/m2
00:47 41.9 °F /  5.5 °C 40.8 °F /  4.9 °C 29.34 in /  993.5 hPa East 2.0 mph /  3.2 km/h 5.0 mph /  8 km/h 96 % 0.02 in /  0.51 mm 0 W/m2
00:52 41.9 °F /  5.5 °C 40.8 °F /  4.9 °C 29.34 in /  993.5 hPa East 2.0 mph /  3.2 km/h 5.0 mph /  8 km/h 96 % 0.02 in /  0.51 mm 0 W/m2
00:57 41.9 °F /  5.5 °C 40.8 °F /  4.9 °C 29.34 in /  993.5 hPa East 4.0 mph /  6.4 km/h 7.0 mph /  11.3 km/h 96 % 0.02 in /  0.51 mm 0 W/m2
01:02 41.9 °F /  5.5 °C 40.8 °F /  4.9 °C 29.34 in /  993.5 hPa East 4.0 mph /  6.4 km/h 8.0 mph /  12.9 km/h 96 % 0.02 in /  0.51 mm 0 W/m2
01:07 41.9 °F /  5.5 °C 40.8 °F /  4.9 °C 29.33 in /  993.1 hPa ENE 2.0 mph /  3.2 km/h 6.0 mph /  9.7 km/h 96 % 0.02 in /  0.51 mm 0 W/m2
01:12 41.9 °F /  5.5 °C 40.8 °F /  4.9 °C 29.33 in /  993.1 hPa East 2.0 mph /  3.2 km/h 5.0 mph /  8 km/h 96 % 0.02 in /  0.51 mm 0 W/m2
01:17 41.9 °F /  5.5 °C 40.8 °F /  4.9 °C 29.33 in /  993.1 hPa East 2.0 mph /  3.2 km/h 5.0 mph /  8 km/h 96 % 0.02 in /  0.51 mm 0 W/m2
01:22 41.9 °F /  5.5 °C 40.8 °F /  4.9 °C 29.33 in /  993.1 hPa East 1.0 mph /  1.6 km/h 5.0 mph /  8 km/h 96 % 0.02 in /  0.51 mm 0 W/m2
01:27 41.9 °F /  5.5 °C 40.8 °F /  4.9 °C 29.33 in /  993.1 hPa East 1.0 mph /  1.6 km/h 4.0 mph /  6.4 km/h 96 % 0.02 in /  0.51 mm 0 W/m2
01:32 41.9 °F /  5.5 °C 40.8 °F /  4.9 °C 29.33 in /  993.1 hPa ESE 1.0 mph /  1.6 km/h 3.0 mph /  4.8 km/h 96 % 0.02 in /  0.51 mm 0 W/m2
01:37 42.1 °F /  5.6 °C 41.3 °F /  5.2 °C 29.33 in /  993.1 hPa Calm   2.0 mph /  3.2 km/h 97 % 0.02 in /  0.51 mm 0 W/m2
01:42 42.1 °F /  5.6 °C 41.3 °F /  5.2 °C 29.32 in /  992.8 hPa ESE 1.0 mph /  1.6 km/h 5.0 mph /  8 km/h 97 % 0.03 in /  0.76 mm 0 W/m2
01:47 42.1 °F /  5.6 °C 41.3 °F /  5.2 °C 29.32 in /  992.8 hPa ESE 1.0 mph /  1.6 km/h 4.0 mph /  6.4 km/h 97 % 0.03 in /  0.76 mm 0 W/m2
01:52 42.1 °F /  5.6 °C 41.3 °F /  5.2 °C 29.32 in /  992.8 hPa ESE 1.0 mph /  1.6 km/h 4.0 mph /  6.4 km/h 97 % 0.04 in /  1.02 mm 0 W/m2
01:57 42.1 °F /  5.6 °C 41.3 °F /  5.2 °C 29.32 in /  992.8 hPa Calm   2.0 mph /  3.2 km/h 97 % 0.03 in /  0.76 mm 0 W/m2
02:02 42.1 °F /  5.6 °C 41.3 °F /  5.2 °C 29.31 in /  992.4 hPa Calm   2.0 mph /  3.2 km/h 97 % 0.04 in /  1.02 mm 0 W/m2
02:07 42.1 °F /  5.6 °C 41.3 °F /  5.2 °C 29.31 in /  992.4 hPa Calm   2.0 mph /  3.2 km/h 97 % 0.04 in /  1.02 mm 0 W/m2
02:12 42.1 °F /  5.6 °C 41.3 °F /  5.2 °C 29.31 in /  992.4 hPa East 1.0 mph /  1.6 km/h 4.0 mph /  6.4 km/h 97 % 0.05 in /  1.27 mm 0 W/m2
02:17 42.1 °F /  5.6 °C 41.3 °F /  5.2 °C 29.30 in /  992.1 hPa ENE 1.0 mph /  1.6 km/h 6.0 mph /  9.7 km/h 97 % 0.05 in /  1.27 mm 0 W/m2
02:22 42.1 °F /  5.6 °C 41.3 °F /  5.2 °C 29.30 in /  992.1 hPa ENE 1.0 mph /  1.6 km/h 4.0 mph /  6.4 km/h 97 % 0.06 in /  1.52 mm 0 W/m2
02:27 42.1 °F /  5.6 °C 41.3 °F /  5.2 °C 29.30 in /  992.1 hPa ENE 2.0 mph /  3.2 km/h 5.0 mph /  8 km/h 97 % 0.06 in /  1.52 mm 0 W/m2
02:32 42.1 °F /  5.6 °C 41.3 °F /  5.2 °C 29.30 in /  992.1 hPa Calm   1.0 mph /  1.6 km/h 97 % 0.06 in /  1.52 mm 0 W/m2
02:37 42.1 °F /  5.6 °C 41.3 °F /  5.2 °C 29.30 in /  992.1 hPa Calm   1.0 mph /  1.6 km/h 97 % 0.06 in /  1.52 mm 0 W/m2
02:42 42.1 °F /  5.6 °C 41.3 °F /  5.2 °C 29.30 in /  992.1 hPa Calm     97 % 0.06 in /  1.52 mm 0 W/m2
02:47 42.1 °F /  5.6 °C 41.3 °F /  5.2 °C 29.29 in /  991.8 hPa Calm     97 % 0.06 in /  1.52 mm 0 W/m2
02:52 42.1 °F /  5.6 °C 41.3 °F /  5.2 °C 29.29 in /  991.8 hPa Calm   1.0 mph /  1.6 km/h 97 % 0.06 in /  1.52 mm 0 W/m2
02:57 42.1 °F /  5.6 °C 41.3 °F /  5.2 °C 29.29 in /  991.8 hPa Calm   1.0 mph /  1.6 km/h 97 % 0.06 in /  1.52 mm 0 W/m2
03:02 42.1 °F /  5.6 °C 41.3 °F /  5.2 °C 29.28 in /  991.4 hPa Calm   2.0 mph /  3.2 km/h 97 % 0.06 in /  1.52 mm 0 W/m2
03:07 42.1 °F /  5.6 °C 41.3 °F /  5.2 °C 29.28 in /  991.4 hPa Calm   2.0 mph /  3.2 km/h 97 % 0.05 in /  1.27 mm 0 W/m2
03:12 42.1 °F /  5.6 °C 41.3 °F /  5.2 °C 29.28 in /  991.4 hPa ENE 1.0 mph /  1.6 km/h 4.0 mph /  6.4 km/h 97 % 0.06 in /  1.52 mm 0 W/m2
03:17 42.1 °F /  5.6 °C 41.3 °F /  5.2 °C 29.28 in /  991.4 hPa Calm   1.0 mph /  1.6 km/h 97 % 0.05 in /  1.27 mm 0 W/m2
03:22 42.1 °F /  5.6 °C 41.3 °F /  5.2 °C 29.28 in /  991.4 hPa Calm     97 % 0.05 in /  1.27 mm 0 W/m2
03:27 42.1 °F /  5.6 °C 41.3 °F /  5.2 °C 29.28 in /  991.4 hPa Calm     97 % 0.05 in /  1.27 mm 0 W/m2
03:32 42.1 °F /  5.6 °C 41.3 °F /  5.2 °C 29.28 in /  991.4 hPa Calm     97 % 0.04 in /  1.02 mm 0 W/m2
03:37 42.1 °F /  5.6 °C 41.3 °F /  5.2 °C 29.27 in /  991.1 hPa Calm     97 % 0.04 in /  1.02 mm 0 W/m2
03:42 42.1 °F /  5.6 °C 41.3 °F /  5.2 °C 29.27 in /  991.1 hPa Calm     97 % 0.03 in /  0.76 mm 0 W/m2
03:47 42.1 °F /  5.6 °C 41.3 °F /  5.2 °C 29.27 in /  991.1 hPa Calm   1.0 mph /  1.6 km/h 97 % 0.03 in /  0.76 mm 0 W/m2
03:53 42.1 °F /  5.6 °C 41.3 °F /  5.2 °C 29.27 in /  991.1 hPa Calm     97 % 0.03 in /  0.76 mm 0 W/m2
03:58 42.1 °F /  5.6 °C 41.3 °F /  5.2 °C 29.27 in /  991.1 hPa ENE 1.0 mph /  1.6 km/h 4.0 mph /  6.4 km/h 97 % 0.02 in /  0.51 mm 0 W/m2
04:03 42.1 °F /  5.6 °C 41.3 °F /  5.2 °C 29.27 in /  991.1 hPa ENE 1.0 mph /  1.6 km/h 3.0 mph /  4.8 km/h 97 % 0.02 in /  0.51 mm 0 W/m2
04:08 42.1 °F /  5.6 °C 41.3 °F /  5.2 °C 29.27 in /  991.1 hPa Calm   3.0 mph /  4.8 km/h 97 % 0.02 in /  0.51 mm 0 W/m2
04:13 42.1 °F /  5.6 °C 41.3 °F /  5.2 °C 29.27 in /  991.1 hPa NE 1.0 mph /  1.6 km/h 4.0 mph /  6.4 km/h 97 % 0.02 in /  0.51 mm 0 W/m2
04:18 42.1 °F /  5.6 °C 41.3 °F /  5.2 °C 29.27 in /  991.1 hPa Calm   1.0 mph /  1.6 km/h 97 % 0.02 in /  0.51 mm 0 W/m2
04:23 41.9 °F /  5.5 °C 41.1 °F /  5.1 °C 29.27 in /  991.1 hPa NE 4.0 mph /  6.4 km/h 5.0 mph /  8 km/h 97 % 0.01 in /  0.25 mm 0 W/m2
04:28 41.9 °F /  5.5 °C 41.1 °F /  5.1 °C 29.27 in /  991.1 hPa NE 1.0 mph /  1.6 km/h 4.0 mph /  6.4 km/h 97 % 0.01 in /  0.25 mm 0 W/m2
04:33 41.9 °F /  5.5 °C 41.1 °F /  5.1 °C 29.26 in /  990.7 hPa NE 1.0 mph /  1.6 km/h 4.0 mph /  6.4 km/h 97 % 0.02 in /  0.51 mm 0 W/m2
04:38 41.9 °F /  5.5 °C 41.1 °F /  5.1 °C 29.26 in /  990.7 hPa NE 2.0 mph /  3.2 km/h 4.0 mph /  6.4 km/h 97 % 0.02 in /  0.51 mm 0 W/m2
04:43 41.9 °F /  5.5 °C 41.1 °F /  5.1 °C 29.26 in /  990.7 hPa NE 1.0 mph /  1.6 km/h 4.0 mph /  6.4 km/h 97 % 0.02 in /  0.51 mm 0 W/m2
04:48 41.9 °F /  5.5 °C 41.1 °F /  5.1 °C 29.26 in /  990.7 hPa Calm   2.0 mph /  3.2 km/h 97 % 0.01 in /  0.25 mm 0 W/m2
04:53 41.9 °F /  5.5 °C 41.1 °F /  5.1 °C 29.26 in /  990.7 hPa Calm     97 % 0.01 in /  0.25 mm 0 W/m2
04:58 41.9 °F /  5.5 °C 41.1 °F /  5.1 °C 29.26 in /  990.7 hPa Calm     97 % 0.01 in /  0.25 mm 0 W/m2
05:03 42.1 °F /  5.6 °C 41.3 °F /  5.2 °C 29.26 in /  990.7 hPa Calm     97 % 0.01 in /  0.25 mm 0 W/m2
05:08 42.1 °F /  5.6 °C 41.3 °F /  5.2 °C 29.26 in /  990.7 hPa Calm     97 % 0.01 in /  0.25 mm 0 W/m2
05:13 42.1 °F /  5.6 °C 41.3 °F /  5.2 °C 29.26 in /  990.7 hPa Calm     97 % 0.01 in /  0.25 mm 0 W/m2
05:18 42.1 °F /  5.6 °C 41.3 °F /  5.2 °C 29.26 in /  990.7 hPa Calm     97 % 0.02 in /  0.51 mm 0 W/m2
05:23 42.1 °F /  5.6 °C 41.3 °F /  5.2 °C 29.26 in /  990.7 hPa Calm     97 % 0.02 in /  0.51 mm 0 W/m2
05:28 42.1 °F /  5.6 °C 41.3 °F /  5.2 °C 29.26 in /  990.7 hPa Calm     97 % 0.02 in /  0.51 mm 0 W/m2
05:33 42.1 °F /  5.6 °C 41.3 °F /  5.2 °C 29.26 in /  990.7 hPa Calm     97 % 0.01 in /  0.25 mm 0 W/m2
05:38 42.1 °F /  5.6 °C 41.3 °F /  5.2 °C 29.26 in /  990.7 hPa Calm     97 % 0.01 in /  0.25 mm 0 W/m2
05:43 42.1 °F /  5.6 °C 41.3 °F /  5.2 °C 29.26 in /  990.7 hPa Calm     97 % 0.01 in /  0.25 mm 0 W/m2
05:48 42.1 °F /  5.6 °C 41.3 °F /  5.2 °C 29.26 in /  990.7 hPa Calm     97 % 0.01 in /  0.25 mm 0 W/m2
05:53 42.1 °F /  5.6 °C 41.3 °F /  5.2 °C 29.26 in /  990.7 hPa Calm     97 % 0.01 in /  0.25 mm 0 W/m2
05:58 42.1 °F /  5.6 °C 41.3 °F /  5.2 °C 29.25 in /  990.4 hPa Calm     97 % 0.01 in /  0.25 mm 0 W/m2
06:03 42.1 °F /  5.6 °C 41.3 °F /  5.2 °C 29.25 in /  990.4 hPa Calm     97 % 0.01 in /  0.25 mm 0 W/m2
06:08 42.1 °F /  5.6 °C 41.3 °F /  5.2 °C 29.25 in /  990.4 hPa Calm     97 % 0.01 in /  0.25 mm 0 W/m2
06:13 42.1 °F /  5.6 °C 41.3 °F /  5.2 °C 29.26 in /  990.7 hPa Calm     97 % 0.01 in /  0.25 mm 0 W/m2
06:18 42.1 °F /  5.6 °C 41.3 °F /  5.2 °C 29.26 in /  990.7 hPa Calm     97 % 0.00 in /  0 mm 0 W/m2
06:23 42.1 °F /  5.6 °C 41.3 °F /  5.2 °C 29.25 in /  990.4 hPa Calm     97 % 0.00 in /  0 mm 0 W/m2
06:28 42.1 °F /  5.6 °C 41.3 °F /  5.2 °C 29.26 in /  990.7 hPa Calm     97 % 0.00 in /  0 mm 0 W/m2
06:33 42.1 °F /  5.6 °C 41.3 °F /  5.2 °C 29.26 in /  990.7 hPa Calm     97 % 0.00 in /  0 mm 0 W/m2
06:38 42.1 °F /  5.6 °C 41.3 °F /  5.2 °C 29.26 in /  990.7 hPa Calm     97 % 0.00 in /  0 mm 0 W/m2
06:43 42.1 °F /  5.6 °C 41.3 °F /  5.2 °C 29.26 in /  990.7 hPa Calm     97 % 0.00 in /  0 mm 0 W/m2
06:48 42.1 °F /  5.6 °C 41.3 °F /  5.2 °C 29.26 in /  990.7 hPa Calm     97 % 0.00 in /  0 mm 0 W/m2
06:53 42.1 °F /  5.6 °C 41.3 °F /  5.2 °C 29.26 in /  990.7 hPa Calm     97 % 0.00 in /  0 mm 0 W/m2
06:58 42.1 °F /  5.6 °C 41.3 °F /  5.2 °C 29.26 in /  990.7 hPa Calm     97 % 0.00 in /  0 mm 5 W/m2
07:03 42.1 °F /  5.6 °C 41.3 °F /  5.2 °C 29.26 in /  990.7 hPa Calm     97 % 0.00 in /  0 mm 5 W/m2
07:08 42.1 °F /  5.6 °C 41.3 °F /  5.2 °C 29.26 in /  990.7 hPa Calm     97 % 0.00 in /  0 mm 9 W/m2
07:13 42.1 °F /  5.6 °C 41.3 °F /  5.2 °C 29.26 in /  990.7 hPa Calm     97 % 0.00 in /  0 mm 11 W/m2
07:18 42.1 °F /  5.6 °C 41.3 °F /  5.2 °C 29.26 in /  990.7 hPa Calm     97 % 0.00 in /  0 mm 12 W/m2
07:23 42.1 °F /  5.6 °C 41.3 °F /  5.2 °C 29.27 in /  991.1 hPa Calm     97 % 0.00 in /  0 mm 14 W/m2
07:28 42.1 °F /  5.6 °C 41.3 °F /  5.2 °C 29.26 in /  990.7 hPa Calm     97 % 0.00 in /  0 mm 18 W/m2
07:33 42.1 °F /  5.6 °C 41.3 °F /  5.2 °C 29.26 in /  990.7 hPa Calm     97 % 0.01 in /  0.25 mm 25 W/m2
07:38 42.1 °F /  5.6 °C 41.3 °F /  5.2 °C 29.26 in /  990.7 hPa Calm     97 % 0.01 in /  0.25 mm 30 W/m2
07:43 42.1 °F /  5.6 °C 41.3 °F /  5.2 °C 29.26 in /  990.7 hPa Calm     97 % 0.01 in /  0.25 mm 33 W/m2
07:48 42.3 °F /  5.7 °C 41.5 °F /  5.3 °C 29.27 in /  991.1 hPa Calm     97 % 0.01 in /  0.25 mm 39 W/m2
07:54 42.3 °F /  5.7 °C 41.5 °F /  5.3 °C 29.26 in /  990.7 hPa Calm     97 % 0.01 in /  0.25 mm 39 W/m2
07:59 42.3 °F /  5.7 °C 41.5 °F /  5.3 °C 29.26 in /  990.7 hPa Calm     97 % 0.01 in /  0.25 mm 42 W/m2
08:04 42.4 °F /  5.8 °C 41.6 °F /  5.3 °C 29.26 in /  990.7 hPa Calm     97 % 0.01 in /  0.25 mm 40 W/m2
08:09 42.4 °F /  5.8 °C 41.6 °F /  5.3 °C 29.26 in /  990.7 hPa Calm     97 % 0.01 in /  0.25 mm 46 W/m2
08:14 42.4 °F /  5.8 °C 41.6 °F /  5.3 °C 29.26 in /  990.7 hPa Calm     97 % 0.01 in /  0.25 mm 40 W/m2
08:19 42.6 °F /  5.9 °C 41.8 °F /  5.4 °C 29.26 in /  990.7 hPa Calm     97 % 0.01 in /  0.25 mm 37 W/m2
08:24 42.6 °F /  5.9 °C 42.1 °F /  5.6 °C 29.27 in /  991.1 hPa Calm     98 % 0.01 in /  0.25 mm 25 W/m2
08:27 42.6 °F /  5.9 °C 42.1 °F /  5.6 °C 29.27 in /  991.1 hPa Calm     98 % 0.01 in /  0.25 mm 19 W/m2
08:32 42.8 °F /  6 °C 42.3 °F /  5.7 °C 29.27 in /  991.1 hPa Calm     98 % 0.01 in /  0.25 mm 19 W/m2
08:37 42.8 °F /  6 °C 42.0 °F /  5.6 °C 29.27 in /  991.1 hPa Calm     97 % 0.02 in /  0.51 mm 18 W/m2
08:42 42.8 °F /  6 °C 42.0 °F /  5.6 °C 29.28 in /  991.4 hPa Calm     97 % 0.03 in /  0.76 mm 11 W/m2
08:47 42.6 °F /  5.9 °C 41.8 °F /  5.4 °C 29.27 in /  991.1 hPa Calm     97 % 0.04 in /  1.02 mm 12 W/m2
08:52 42.6 °F /  5.9 °C 41.8 °F /  5.4 °C 29.26 in /  990.7 hPa Calm     97 % 0.05 in /  1.27 mm 32 W/m2
08:57 42.6 °F /  5.9 °C 41.8 °F /  5.4 °C 29.27 in /  991.1 hPa Calm     97 % 0.06 in /  1.52 mm 25 W/m2
09:02 42.6 °F /  5.9 °C 41.8 °F /  5.4 °C 29.27 in /  991.1 hPa Calm     97 % 0.06 in /  1.52 mm 30 W/m2
09:07 42.8 °F /  6 °C 42.0 °F /  5.6 °C 29.27 in /  991.1 hPa Calm     97 % 0.06 in /  1.52 mm 35 W/m2
09:12 43.0 °F /  6.1 °C 42.2 °F /  5.7 °C 29.26 in /  990.7 hPa Calm     97 % 0.06 in /  1.52 mm 44 W/m2
09:17 43.0 °F /  6.1 °C 42.5 °F /  5.8 °C 29.27 in /  991.1 hPa Calm     98 % 0.06 in /  1.52 mm 46 W/m2
09:22 43.0 °F /  6.1 °C 42.2 °F /  5.7 °C 29.26 in /  990.7 hPa Calm     97 % 0.06 in /  1.52 mm 47 W/m2
09:27 43.2 °F /  6.2 °C 42.4 °F /  5.8 °C 29.26 in /  990.7 hPa Calm     97 % 0.07 in /  1.78 mm 70 W/m2
09:32 43.2 °F /  6.2 °C 42.4 °F /  5.8 °C 29.27 in /  991.1 hPa Calm     97 % 0.06 in /  1.52 mm 84 W/m2
09:37 43.2 °F /  6.2 °C 42.4 °F /  5.8 °C 29.27 in /  991.1 hPa Calm     97 % 0.05 in /  1.27 mm 77 W/m2
09:42 43.3 °F /  6.3 °C 42.8 °F /  6 °C 29.27 in /  991.1 hPa Calm     98 % 0.04 in /  1.02 mm 84 W/m2
09:47 43.3 °F /  6.3 °C 42.8 °F /  6 °C 29.27 in /  991.1 hPa Calm     98 % 0.03 in /  0.76 mm 118 W/m2
09:52 43.5 °F /  6.4 °C 43.0 °F /  6.1 °C 29.27 in /  991.1 hPa Calm     98 % 0.02 in /  0.51 mm 171 W/m2
09:57 43.7 °F /  6.5 °C 43.2 °F /  6.2 °C 29.27 in /  991.1 hPa Calm   2.0 mph /  3.2 km/h 98 % 0.02 in /  0.51 mm 190 W/m2
10:02 43.9 °F /  6.6 °C 43.4 °F /  6.3 °C 29.27 in /  991.1 hPa Calm   1.0 mph /  1.6 km/h 98 % 0.02 in /  0.51 mm 130 W/m2
10:07 44.1 °F /  6.7 °C 43.5 °F /  6.4 °C 29.27 in /  991.1 hPa Calm     98 % 0.02 in /  0.51 mm 111 W/m2
10:12 44.1 °F /  6.7 °C 43.5 °F /  6.4 °C 29.27 in /  991.1 hPa Calm   2.0 mph /  3.2 km/h 98 % 0.02 in /  0.51 mm 107 W/m2
10:17 44.2 °F /  6.8 °C 43.7 °F /  6.5 °C 29.27 in /  991.1 hPa Calm     98 % 0.02 in /  0.51 mm 141 W/m2
10:22 44.4 °F /  6.9 °C 43.9 °F /  6.6 °C 29.27 in /  991.1 hPa Calm     98 % 0.01 in /  0.25 mm 134 W/m2
10:27 44.4 °F /  6.9 °C 43.9 °F /  6.6 °C 29.28 in /  991.4 hPa Calm     98 % 0.00 in /  0 mm 135 W/m2
10:32 44.4 °F /  6.9 °C 43.9 °F /  6.6 °C 29.27 in /  991.1 hPa Calm   1.0 mph /  1.6 km/h 98 % 0.00 in /  0 mm 155 W/m2
10:37 44.8 °F /  7.1 °C 44.3 °F /  6.8 °C 29.27 in /  991.1 hPa ESE 1.0 mph /  1.6 km/h 2.0 mph /  3.2 km/h 98 % 0.00 in /  0 mm 146 W/m2
10:42 45.0 °F /  7.2 °C 44.4 °F /  6.9 °C 29.27 in /  991.1 hPa ESE 1.0 mph /  1.6 km/h 3.0 mph /  4.8 km/h 98 % 0.00 in /  0 mm 211 W/m2
10:47 45.1 °F /  7.3 °C 44.6 °F /  7 °C 29.27 in /  991.1 hPa Calm   2.0 mph /  3.2 km/h 98 % 0.00 in /  0 mm 144 W/m2
10:52 45.7 °F /  7.6 °C 45.1 °F /  7.3 °C 29.27 in /  991.1 hPa ESE 1.0 mph /  1.6 km/h 4.0 mph /  6.4 km/h 98 % 0.00 in /  0 mm 107 W/m2
10:57 45.9 °F /  7.7 °C 45.3 °F /  7.4 °C 29.27 in /  991.1 hPa Calm   2.0 mph /  3.2 km/h 98 % 0.00 in /  0 mm 98 W/m2
11:02 45.9 °F /  7.7 °C 45.3 °F /  7.4 °C 29.27 in /  991.1 hPa ESE 2.0 mph /  3.2 km/h 5.0 mph /  8 km/h 98 % 0.00 in /  0 mm 107 W/m2
11:07 45.9 °F /  7.7 °C 45.3 °F /  7.4 °C 29.27 in /  991.1 hPa ESE 1.0 mph /  1.6 km/h 5.0 mph /  8 km/h 98 % 0.00 in /  0 mm 116 W/m2
11:12 45.9 °F /  7.7 °C 45.3 °F /  7.4 °C 29.27 in /  991.1 hPa ESE 1.0 mph /  1.6 km/h 4.0 mph /  6.4 km/h 98 % 0.00 in /  0 mm 95 W/m2
11:17 45.9 °F /  7.7 °C 45.3 °F /  7.4 °C 29.27 in /  991.1 hPa Calm     98 % 0.00 in /  0 mm 123 W/m2
11:22 46.0 °F /  7.8 °C 45.5 °F /  7.5 °C 29.27 in /  991.1 hPa ESE 2.0 mph /  3.2 km/h 4.0 mph /  6.4 km/h 98 % 0.00 in /  0 mm 125 W/m2
11:27 46.2 °F /  7.9 °C 45.7 °F /  7.6 °C 29.27 in /  991.1 hPa Calm   2.0 mph /  3.2 km/h 98 % 0.00 in /  0 mm 121 W/m2
11:32 46.6 °F /  8.1 °C 46.0 °F /  7.8 °C 29.27 in /  991.1 hPa ESE 4.0 mph /  6.4 km/h 5.0 mph /  8 km/h 98 % 0.00 in /  0 mm 121 W/m2
11:37 46.8 °F /  8.2 °C 46.2 °F /  7.9 °C 29.28 in /  991.4 hPa ESE 2.0 mph /  3.2 km/h 5.0 mph /  8 km/h 98 % 0.00 in /  0 mm 123 W/m2
11:42 46.9 °F /  8.3 °C 46.4 °F /  8 °C 29.28 in /  991.4 hPa ESE 1.0 mph /  1.6 km/h 3.0 mph /  4.8 km/h 98 % 0.00 in /  0 mm 148 W/m2
11:47 47.1 °F /  8.4 °C 46.6 °F /  8.1 °C 29.28 in /  991.4 hPa ESE 1.0 mph /  1.6 km/h 4.0 mph /  6.4 km/h 98 % 0.00 in /  0 mm 174 W/m2
11:52 47.5 °F /  8.6 °C 46.9 °F /  8.3 °C 29.28 in /  991.4 hPa ESE 3.0 mph /  4.8 km/h 5.0 mph /  8 km/h 98 % 0.00 in /  0 mm 183 W/m2
11:57 47.8 °F /  8.8 °C 47.3 °F /  8.5 °C 29.27 in /  991.1 hPa ESE 2.0 mph /  3.2 km/h 5.0 mph /  8 km/h 98 % 0.00 in /  0 mm 181 W/m2
12:02 48.2 °F /  9 °C 47.7 °F /  8.7 °C 29.27 in /  991.1 hPa ENE 1.0 mph /  1.6 km/h 2.0 mph /  3.2 km/h 98 % 0.00 in /  0 mm 221 W/m2
12:07 48.6 °F /  9.2 °C 48.0 °F /  8.9 °C 29.27 in /  991.1 hPa ENE 2.0 mph /  3.2 km/h 5.0 mph /  8 km/h 98 % 0.00 in /  0 mm 179 W/m2
12:12 48.9 °F /  9.4 °C 48.4 °F /  9.1 °C 29.27 in /  991.1 hPa Calm   1.0 mph /  1.6 km/h 98 % 0.00 in /  0 mm 160 W/m2
12:17 49.1 °F /  9.5 °C 48.6 °F /  9.2 °C 29.27 in /  991.1 hPa East 1.0 mph /  1.6 km/h 4.0 mph /  6.4 km/h 98 % 0.00 in /  0 mm 178 W/m2
12:22 49.5 °F /  9.7 °C 48.9 °F /  9.4 °C 29.27 in /  991.1 hPa ESE 3.0 mph /  4.8 km/h 5.0 mph /  8 km/h 98 % 0.00 in /  0 mm 128 W/m2
12:27 49.5 °F /  9.7 °C 48.9 °F /  9.4 °C 29.27 in /  991.1 hPa ESE 3.0 mph /  4.8 km/h 5.0 mph /  8 km/h 98 % 0.00 in /  0 mm 102 W/m2
12:32 49.6 °F /  9.8 °C 49.1 °F /  9.5 °C 29.27 in /  991.1 hPa ESE 2.0 mph /  3.2 km/h 5.0 mph /  8 km/h 98 % 0.00 in /  0 mm 160 W/m2
12:37 49.8 °F /  9.9 °C 49.3 °F /  9.6 °C 29.27 in /  991.1 hPa ESE 1.0 mph /  1.6 km/h 4.0 mph /  6.4 km/h 98 % 0.00 in /  0 mm 294 W/m2
12:42 50.4 °F /  10.2 °C 49.8 °F /  9.9 °C 29.27 in /  991.1 hPa ESE 2.0 mph /  3.2 km/h 6.0 mph /  9.7 km/h 98 % 0.00 in /  0 mm 248 W/m2
12:47 50.9 °F /  10.5 °C 50.4 °F /  10.2 °C 29.27 in /  991.1 hPa ESE 2.0 mph /  3.2 km/h 4.0 mph /  6.4 km/h 98 % 0.00 in /  0 mm 260 W/m2
12:52 51.3 °F /  10.7 °C 50.7 °F /  10.4 °C 29.26 in /  990.7 hPa ESE 2.0 mph /  3.2 km/h 5.0 mph /  8 km/h 98 % 0.00 in /  0 mm 163 W/m2
12:57 51.6 °F /  10.9 °C 51.1 °F /  10.6 °C 29.26 in /  990.7 hPa ESE 3.0 mph /  4.8 km/h 6.0 mph /  9.7 km/h 98 % 0.00 in /  0 mm 163 W/m2
13:02 52.0 °F /  11.1 °C 51.4 °F /  10.8 °C 29.26 in /  990.7 hPa SSE 2.0 mph /  3.2 km/h 5.0 mph /  8 km/h 98 % 0.00 in /  0 mm 139 W/m2
13:07 52.2 °F /  11.2 °C 51.6 °F /  10.9 °C 29.26 in /  990.7 hPa SSE 4.0 mph /  6.4 km/h 8.0 mph /  12.9 km/h 98 % 0.00 in /  0 mm 151 W/m2
13:12 52.3 °F /  11.3 °C 51.8 °F /  11 °C 29.26 in /  990.7 hPa SSE 4.0 mph /  6.4 km/h 6.0 mph /  9.7 km/h 98 % 0.00 in /  0 mm 134 W/m2
13:18 52.5 °F /  11.4 °C 52.0 °F /  11.1 °C 29.26 in /  990.7 hPa South 2.0 mph /  3.2 km/h 4.0 mph /  6.4 km/h 98 % 0.00 in /  0 mm 153 W/m2
13:23 52.5 °F /  11.4 °C 52.0 °F /  11.1 °C 29.25 in /  990.4 hPa SSE 2.0 mph /  3.2 km/h 6.0 mph /  9.7 km/h 98 % 0.00 in /  0 mm 155 W/m2
13:28 52.5 °F /  11.4 °C 52.0 °F /  11.1 °C 29.26 in /  990.7 hPa South 4.0 mph /  6.4 km/h 7.0 mph /  11.3 km/h 98 % 0.00 in /  0 mm 174 W/m2
13:33 52.9 °F /  11.6 °C 52.3 °F /  11.3 °C 29.26 in /  990.7 hPa South 7.0 mph /  11.3 km/h 13.0 mph /  20.9 km/h 98 % 0.00 in /  0 mm 362 W/m2
13:38 53.2 °F /  11.8 °C 52.7 °F /  11.5 °C 29.26 in /  990.7 hPa South 8.0 mph /  12.9 km/h 11.0 mph /  17.7 km/h 98 % 0.00 in /  0 mm 394 W/m2
13:43 53.6 °F /  12 °C 53.0 °F /  11.7 °C 29.26 in /  990.7 hPa South 8.0 mph /  12.9 km/h 13.0 mph /  20.9 km/h 98 % 0.00 in /  0 mm 272 W/m2
13:48 53.8 °F /  12.1 °C 52.9 °F /  11.6 °C 29.26 in /  990.7 hPa SSE 6.0 mph /  9.7 km/h 11.0 mph /  17.7 km/h 97 % 0.00 in /  0 mm 195 W/m2
13:53 53.8 °F /  12.1 °C 52.9 °F /  11.6 °C 29.26 in /  990.7 hPa South 7.0 mph /  11.3 km/h 13.0 mph /  20.9 km/h 97 % 0.00 in /  0 mm 113 W/m2
13:58 53.8 °F /  12.1 °C 52.7 °F /  11.5 °C 29.25 in /  990.4 hPa South 7.0 mph /  11.3 km/h 10.0 mph /  16.1 km/h 96 % 0.00 in /  0 mm 141 W/m2
14:03 54.0 °F /  12.2 °C 52.6 °F /  11.4 °C 29.25 in /  990.4 hPa South 5.0 mph /  8 km/h 9.0 mph /  14.5 km/h 95 % 0.00 in /  0 mm 190 W/m2
14:08 54.1 °F /  12.3 °C 52.7 °F /  11.5 °C 29.25 in /  990.4 hPa South 5.0 mph /  8 km/h 8.0 mph /  12.9 km/h 95 % 0.00 in /  0 mm 178 W/m2
14:13 54.3 °F /  12.4 °C 52.6 °F /  11.4 °C 29.25 in /  990.4 hPa SSE 7.0 mph /  11.3 km/h 10.0 mph /  16.1 km/h 94 % 0.00 in /  0 mm 188 W/m2
14:18 54.5 °F /  12.5 °C 52.5 °F /  11.4 °C 29.25 in /  990.4 hPa SSE 7.0 mph /  11.3 km/h 11.0 mph /  17.7 km/h 93 % 0.00 in /  0 mm 167 W/m2
14:23 54.7 °F /  12.6 °C 52.7 °F /  11.5 °C 29.25 in /  990.4 hPa South 2.0 mph /  3.2 km/h 5.0 mph /  8 km/h 93 % 0.00 in /  0 mm 144 W/m2
14:28 54.7 °F /  12.6 °C 52.4 °F /  11.3 °C 29.25 in /  990.4 hPa SE 5.0 mph /  8 km/h 9.0 mph /  14.5 km/h 92 % 0.00 in /  0 mm 107 W/m2
14:33 54.9 °F /  12.7 °C 52.6 °F /  11.4 °C 29.25 in /  990.4 hPa South 4.0 mph /  6.4 km/h 6.0 mph /  9.7 km/h 92 % 0.00 in /  0 mm 107 W/m2
14:38 54.9 °F /  12.7 °C 52.3 °F /  11.3 °C 29.25 in /  990.4 hPa SSE 6.0 mph /  9.7 km/h 9.0 mph /  14.5 km/h 91 % 0.00 in /  0 mm 97 W/m2
14:43 54.9 °F /  12.7 °C 52.3 °F /  11.3 °C 29.25 in /  990.4 hPa South 7.0 mph /  11.3 km/h 13.0 mph /  20.9 km/h 91 % 0.00 in /  0 mm 77 W/m2
14:48 54.9 °F /  12.7 °C 52.0 °F /  11.1 °C 29.25 in /  990.4 hPa SSE 7.0 mph /  11.3 km/h 10.0 mph /  16.1 km/h 90 % 0.00 in /  0 mm 49 W/m2
14:53 54.9 °F /  12.7 °C 52.0 °F /  11.1 °C 29.25 in /  990.4 hPa South 6.0 mph /  9.7 km/h 11.0 mph /  17.7 km/h 90 % 0.00 in /  0 mm 72 W/m2
14:58 54.7 °F /  12.6 °C 51.8 °F /  11 °C 29.26 in /  990.7 hPa South 7.0 mph /  11.3 km/h 12.0 mph /  19.3 km/h 90 % 0.00 in /  0 mm 74 W/m2
15:03 54.7 °F /  12.6 °C 51.8 °F /  11 °C 29.25 in /  990.4 hPa SSE 6.0 mph /  9.7 km/h 10.0 mph /  16.1 km/h 90 % 0.00 in /  0 mm 56 W/m2
15:08 54.7 °F /  12.6 °C 51.5 °F /  10.8 °C 29.25 in /  990.4 hPa South 6.0 mph /  9.7 km/h 9.0 mph /  14.5 km/h 89 % 0.00 in /  0 mm 42 W/m2
15:13 54.9 °F /  12.7 °C 51.7 °F /  10.9 °C 29.25 in /  990.4 hPa SSE 6.0 mph /  9.7 km/h 13.0 mph /  20.9 km/h 89 % 0.00 in /  0 mm 39 W/m2
15:18 54.7 °F /  12.6 °C 51.5 °F /  10.8 °C 29.25 in /  990.4 hPa South 4.0 mph /  6.4 km/h 8.0 mph /  12.9 km/h 89 % 0.00 in /  0 mm 54 W/m2
15:23 54.7 °F /  12.6 °C 51.5 °F /  10.8 °C 29.25 in /  990.4 hPa SSE 7.0 mph /  11.3 km/h 11.0 mph /  17.7 km/h 89 % 0.00 in /  0 mm 72 W/m2
15:28 54.9 °F /  12.7 °C 51.7 °F /  10.9 °C 29.25 in /  990.4 hPa South 5.0 mph /  8 km/h 9.0 mph /  14.5 km/h 89 % 0.00 in /  0 mm 84 W/m2
15:33 54.9 °F /  12.7 °C 51.7 °F /  10.9 °C 29.25 in /  990.4 hPa SE 8.0 mph /  12.9 km/h 11.0 mph /  17.7 km/h 89 % 0.00 in /  0 mm 69 W/m2
15:38 54.7 °F /  12.6 °C 51.5 °F /  10.8 °C 29.25 in /  990.4 hPa SSE 7.0 mph /  11.3 km/h 10.0 mph /  16.1 km/h 89 % 0.00 in /  0 mm 74 W/m2
15:43 54.7 °F /  12.6 °C 51.5 °F /  10.8 °C 29.26 in /  990.7 hPa South 8.0 mph /  12.9 km/h 13.0 mph /  20.9 km/h 89 % 0.00 in /  0 mm 47 W/m2
15:48 54.7 °F /  12.6 °C 51.5 °F /  10.8 °C 29.26 in /  990.7 hPa SSE 7.0 mph /  11.3 km/h 11.0 mph /  17.7 km/h 89 % 0.00 in /  0 mm 42 W/m2
15:53 54.7 °F /  12.6 °C 51.5 °F /  10.8 °C 29.25 in /  990.4 hPa SSE 7.0 mph /  11.3 km/h 11.0 mph /  17.7 km/h 89 % 0.00 in /  0 mm 49 W/m2
15:58 54.7 °F /  12.6 °C 51.8 °F /  11 °C 29.25 in /  990.4 hPa SSE 9.0 mph /  14.5 km/h 14.0 mph /  22.5 km/h 90 % 0.00 in /  0 mm 86 W/m2
16:03 54.5 °F /  12.5 °C 51.6 °F /  10.9 °C 29.25 in /  990.4 hPa SSE 9.0 mph /  14.5 km/h 13.0 mph /  20.9 km/h 90 % 0.00 in /  0 mm 100 W/m2
16:08 54.5 °F /  12.5 °C 51.9 °F /  11.1 °C 29.25 in /  990.4 hPa SSE 9.0 mph /  14.5 km/h 12.0 mph /  19.3 km/h 91 % 0.00 in /  0 mm 79 W/m2
16:13 54.5 °F /  12.5 °C 51.9 °F /  11.1 °C 29.25 in /  990.4 hPa SSE 9.0 mph /  14.5 km/h 12.0 mph /  19.3 km/h 91 % 0.00 in /  0 mm 63 W/m2
16:18 54.5 °F /  12.5 °C 51.9 °F /  11.1 °C 29.25 in /  990.4 hPa SSE 9.0 mph /  14.5 km/h 12.0 mph /  19.3 km/h 91 % 0.00 in /  0 mm 46 W/m2
16:23 54.5 °F /  12.5 °C 51.9 °F /  11.1 °C 29.25 in /  990.4 hPa SSE 7.0 mph /  11.3 km/h 13.0 mph /  20.9 km/h 91 % 0.00 in /  0 mm 33 W/m2
16:28 54.5 °F /  12.5 °C 51.9 °F /  11.1 °C 29.25 in /  990.4 hPa SSE 7.0 mph /  11.3 km/h 12.0 mph /  19.3 km/h 91 % 0.00 in /  0 mm 26 W/m2
16:33 54.5 °F /  12.5 °C 51.9 °F /  11.1 °C 29.25 in /  990.4 hPa SSE 6.0 mph /  9.7 km/h 11.0 mph /  17.7 km/h 91 % 0.00 in /  0 mm 26 W/m2
16:38 54.3 °F /  12.4 °C 51.7 °F /  10.9 °C 29.25 in /  990.4 hPa SSE 5.0 mph /  8 km/h 8.0 mph /  12.9 km/h 91 % 0.00 in /  0 mm 26 W/m2
16:43 54.3 °F /  12.4 °C 52.0 °F /  11.1 °C 29.25 in /  990.4 hPa SSE 7.0 mph /  11.3 km/h 10.0 mph /  16.1 km/h 92 % 0.00 in /  0 mm 26 W/m2
16:48 54.3 °F /  12.4 °C 52.0 °F /  11.1 °C 29.26 in /  990.7 hPa South 7.0 mph /  11.3 km/h 10.0 mph /  16.1 km/h 92 % 0.00 in /  0 mm 26 W/m2
16:54 54.1 °F /  12.3 °C 51.9 °F /  11.1 °C 29.26 in /  990.7 hPa South 7.0 mph /  11.3 km/h 10.0 mph /  16.1 km/h 92 % 0.00 in /  0 mm 60 W/m2
16:59 54.1 °F /  12.3 °C 52.2 °F /  11.2 °C 29.26 in /  990.7 hPa SSE 7.0 mph /  11.3 km/h 9.0 mph /  14.5 km/h 93 % 0.00 in /  0 mm 74 W/m2
17:04 54.0 °F /  12.2 °C 52.0 °F /  11.1 °C 29.26 in /  990.7 hPa South 6.0 mph /  9.7 km/h 12.0 mph /  19.3 km/h 93 % 0.01 in /  0.25 mm 32 W/m2
17:09 54.0 °F /  12.2 °C 52.0 °F /  11.1 °C 29.26 in /  990.7 hPa South 9.0 mph /  14.5 km/h 16.0 mph /  25.7 km/h 93 % 0.01 in /  0.25 mm 42 W/m2
17:14 53.8 °F /  12.1 °C 52.1 °F /  11.2 °C 29.26 in /  990.7 hPa South 6.0 mph /  9.7 km/h 13.0 mph /  20.9 km/h 94 % 0.01 in /  0.25 mm 40 W/m2
17:19 53.8 °F /  12.1 °C 52.1 °F /  11.2 °C 29.26 in /  990.7 hPa South 7.0 mph /  11.3 km/h 11.0 mph /  17.7 km/h 94 % 0.01 in /  0.25 mm 26 W/m2
17:24 53.6 °F /  12 °C 51.9 °F /  11.1 °C 29.26 in /  990.7 hPa South 6.0 mph /  9.7 km/h 9.0 mph /  14.5 km/h 94 % 0.01 in /  0.25 mm 12 W/m2
17:29 53.6 °F /  12 °C 51.9 °F /  11.1 °C 29.26 in /  990.7 hPa South 3.0 mph /  4.8 km/h 6.0 mph /  9.7 km/h 94 % 0.01 in /  0.25 mm 9 W/m2
17:34 53.4 °F /  11.9 °C 51.7 °F /  10.9 °C 29.26 in /  990.7 hPa South 4.0 mph /  6.4 km/h 7.0 mph /  11.3 km/h 94 % 0.01 in /  0.25 mm 9 W/m2
17:39 53.4 °F /  11.9 °C 51.7 °F /  10.9 °C 29.27 in /  991.1 hPa SSW 2.0 mph /  3.2 km/h 6.0 mph /  9.7 km/h 94 % 0.01 in /  0.25 mm 9 W/m2
17:44 53.2 °F /  11.8 °C 51.6 °F /  10.9 °C 29.27 in /  991.1 hPa SSW 1.0 mph /  1.6 km/h 4.0 mph /  6.4 km/h 94 % 0.01 in /  0.25 mm 5 W/m2
17:49 53.2 °F /  11.8 °C 51.6 °F /  10.9 °C 29.27 in /  991.1 hPa Calm   1.0 mph /  1.6 km/h 94 % 0.01 in /  0.25 mm 0 W/m2
17:54 53.2 °F /  11.8 °C 51.6 °F /  10.9 °C 29.27 in /  991.1 hPa South 2.0 mph /  3.2 km/h 5.0 mph /  8 km/h 94 % 0.01 in /  0.25 mm 0 W/m2
17:59 53.1 °F /  11.7 °C 51.4 °F /  10.8 °C 29.27 in /  991.1 hPa SSE 4.0 mph /  6.4 km/h 8.0 mph /  12.9 km/h 94 % 0.01 in /  0.25 mm 0 W/m2
18:04 53.1 °F /  11.7 °C 51.4 °F /  10.8 °C 29.27 in /  991.1 hPa South 3.0 mph /  4.8 km/h 6.0 mph /  9.7 km/h 94 % 0.00 in /  0 mm 0 W/m2
18:09 53.1 °F /  11.7 °C 51.4 °F /  10.8 °C 29.27 in /  991.1 hPa South 1.0 mph /  1.6 km/h 4.0 mph /  6.4 km/h 94 % 0.00 in /  0 mm 0 W/m2
18:14 53.1 °F /  11.7 °C 51.4 °F /  10.8 °C 29.28 in /  991.4 hPa Calm   2.0 mph /  3.2 km/h 94 % 0.00 in /  0 mm 0 W/m2
18:19 53.1 °F /  11.7 °C 51.4 °F /  10.8 °C 29.28 in /  991.4 hPa SSW 6.0 mph /  9.7 km/h 9.0 mph /  14.5 km/h 94 % 0.00 in /  0 mm 0 W/m2
18:24 52.9 °F /  11.6 °C 51.2 °F /  10.7 °C 29.28 in /  991.4 hPa SW 6.0 mph /  9.7 km/h 9.0 mph /  14.5 km/h 94 % 0.00 in /  0 mm 0 W/m2
18:29 52.9 °F /  11.6 °C 51.2 °F /  10.7 °C 29.28 in /  991.4 hPa SW 6.0 mph /  9.7 km/h 9.0 mph /  14.5 km/h 94 % 0.00 in /  0 mm 0 W/m2
18:34 52.9 °F /  11.6 °C 51.2 °F /  10.7 °C 29.29 in /  991.8 hPa WSW 9.0 mph /  14.5 km/h 13.0 mph /  20.9 km/h 94 % 0.00 in /  0 mm 0 W/m2
18:39 52.9 °F /  11.6 °C 50.9 °F /  10.5 °C 29.29 in /  991.8 hPa WSW 5.0 mph /  8 km/h 9.0 mph /  14.5 km/h 93 % 0.00 in /  0 mm 0 W/m2
18:44 52.7 °F /  11.5 °C 50.7 °F /  10.4 °C 29.29 in /  991.8 hPa WSW 7.0 mph /  11.3 km/h 13.0 mph /  20.9 km/h 93 % 0.00 in /  0 mm 0 W/m2
18:49 52.5 °F /  11.4 °C 50.3 °F /  10.2 °C 29.30 in /  992.1 hPa WSW 5.0 mph /  8 km/h 8.0 mph /  12.9 km/h 92 % 0.00 in /  0 mm 0 W/m2
18:54 52.3 °F /  11.3 °C 49.8 °F /  9.9 °C 29.30 in /  992.1 hPa WSW 9.0 mph /  14.5 km/h 12.0 mph /  19.3 km/h 91 % 0.00 in /  0 mm 0 W/m2
18:59 52.3 °F /  11.3 °C 49.5 °F /  9.7 °C 29.30 in /  992.1 hPa WSW 6.0 mph /  9.7 km/h 10.0 mph /  16.1 km/h 90 % 0.00 in /  0 mm 0 W/m2
19:04 52.2 °F /  11.2 °C 48.7 °F /  9.3 °C 29.31 in /  992.4 hPa WSW 7.0 mph /  11.3 km/h 11.0 mph /  17.7 km/h 88 % 0.00 in /  0 mm 0 W/m2
19:09 52.0 °F /  11.1 °C 48.2 °F /  9 °C 29.31 in /  992.4 hPa WSW 8.0 mph /  12.9 km/h 12.0 mph /  19.3 km/h 87 % 0.00 in /  0 mm 0 W/m2
19:14 51.6 °F /  10.9 °C 47.6 °F /  8.7 °C 29.31 in /  992.4 hPa WSW 5.0 mph /  8 km/h 8.0 mph /  12.9 km/h 86 % 0.00 in /  0 mm 0 W/m2
19:19 51.6 °F /  10.9 °C 47.6 °F /  8.7 °C 29.31 in /  992.4 hPa West 6.0 mph /  9.7 km/h 8.0 mph /  12.9 km/h 86 % 0.00 in /  0 mm 0 W/m2
19:24 51.4 °F /  10.8 °C 47.4 °F /  8.6 °C 29.32 in /  992.8 hPa WSW 4.0 mph /  6.4 km/h 6.0 mph /  9.7 km/h 86 % 0.00 in /  0 mm 0 W/m2
19:29 51.3 °F /  10.7 °C 47.2 °F /  8.4 °C 29.31 in /  992.4 hPa WSW 2.0 mph /  3.2 km/h 6.0 mph /  9.7 km/h 86 % 0.00 in /  0 mm 0 W/m2
19:34 51.1 °F /  10.6 °C 47.0 °F /  8.3 °C 29.31 in /  992.4 hPa SW 3.0 mph /  4.8 km/h 5.0 mph /  8 km/h 86 % 0.00 in /  0 mm 0 W/m2
19:39 51.1 °F /  10.6 °C 47.0 °F /  8.3 °C 29.31 in /  992.4 hPa South 2.0 mph /  3.2 km/h 7.0 mph /  11.3 km/h 86 % 0.00 in /  0 mm 0 W/m2
19:44 50.7 °F /  10.4 °C 46.7 °F /  8.2 °C 29.32 in /  992.8 hPa SSW 1.0 mph /  1.6 km/h 4.0 mph /  6.4 km/h 86 % 0.00 in /  0 mm 0 W/m2
19:49 50.7 °F /  10.4 °C 47.0 °F /  8.3 °C 29.32 in /  992.8 hPa SSW 3.0 mph /  4.8 km/h 8.0 mph /  12.9 km/h 87 % 0.00 in /  0 mm 0 W/m2
19:54 50.7 °F /  10.4 °C 47.0 °F /  8.3 °C 29.32 in /  992.8 hPa SW 3.0 mph /  4.8 km/h 6.0 mph /  9.7 km/h 87 % 0.00 in /  0 mm 0 W/m2
19:59 50.5 °F /  10.3 °C 46.8 °F /  8.2 °C 29.32 in /  992.8 hPa SW 7.0 mph /  11.3 km/h 11.0 mph /  17.7 km/h 87 % 0.00 in /  0 mm 0 W/m2
20:04 50.5 °F /  10.3 °C 46.2 °F /  7.9 °C 29.32 in /  992.8 hPa WSW 9.0 mph /  14.5 km/h 14.0 mph /  22.5 km/h 85 % 0.00 in /  0 mm 0 W/m2
20:09 50.5 °F /  10.3 °C 45.9 °F /  7.7 °C 29.32 in /  992.8 hPa WSW 10.0 mph /  16.1 km/h 16.0 mph /  25.7 km/h 84 % 0.00 in /  0 mm 0 W/m2
20:14 50.4 °F /  10.2 °C 45.4 °F /  7.4 °C 29.32 in /  992.8 hPa SW 8.0 mph /  12.9 km/h 13.0 mph /  20.9 km/h 83 % 0.00 in /  0 mm 0 W/m2
20:19 50.2 °F /  10.1 °C 45.2 °F /  7.3 °C 29.33 in /  993.1 hPa WSW 7.0 mph /  11.3 km/h 10.0 mph /  16.1 km/h 83 % 0.00 in /  0 mm 0 W/m2
20:24 50.2 °F /  10.1 °C 45.2 °F /  7.3 °C 29.33 in /  993.1 hPa WSW 6.0 mph /  9.7 km/h 9.0 mph /  14.5 km/h 83 % 0.00 in /  0 mm 0 W/m2
20:29 49.8 °F /  9.9 °C 44.9 °F /  7.2 °C 29.33 in /  993.1 hPa WSW 7.0 mph /  11.3 km/h 9.0 mph /  14.5 km/h 83 % 0.00 in /  0 mm 0 W/m2
20:34 49.6 °F /  9.8 °C 44.4 °F /  6.9 °C 29.33 in /  993.1 hPa WSW 7.0 mph /  11.3 km/h 11.0 mph /  17.7 km/h 82 % 0.00 in /  0 mm 0 W/m2
20:39 49.5 °F /  9.7 °C 44.2 °F /  6.8 °C 29.33 in /  993.1 hPa WSW 6.0 mph /  9.7 km/h 10.0 mph /  16.1 km/h 82 % 0.00 in /  0 mm 0 W/m2
20:44 49.5 °F /  9.7 °C 44.2 °F /  6.8 °C 29.34 in /  993.5 hPa WSW 2.0 mph /  3.2 km/h 6.0 mph /  9.7 km/h 82 % 0.00 in /  0 mm 0 W/m2
20:49 49.3 °F /  9.6 °C 44.0 °F /  6.7 °C 29.34 in /  993.5 hPa WNW 4.0 mph /  6.4 km/h 7.0 mph /  11.3 km/h 82 % 0.00 in /  0 mm 0 W/m2
20:54 48.9 °F /  9.4 °C 43.7 °F /  6.5 °C 29.34 in /  993.5 hPa West 5.0 mph /  8 km/h 7.0 mph /  11.3 km/h 82 % 0.00 in /  0 mm 0 W/m2
20:59 48.7 °F /  9.3 °C 43.5 °F /  6.4 °C 29.34 in /  993.5 hPa WNW 3.0 mph /  4.8 km/h 7.0 mph /  11.3 km/h 82 % 0.00 in /  0 mm 0 W/m2
21:04 48.6 °F /  9.2 °C 43.3 °F /  6.3 °C 29.34 in /  993.5 hPa WNW 1.0 mph /  1.6 km/h 5.0 mph /  8 km/h 82 % 0.00 in /  0 mm 0 W/m2
21:09 48.4 °F /  9.1 °C 43.5 °F /  6.4 °C 29.34 in /  993.5 hPa West 1.0 mph /  1.6 km/h 2.0 mph /  3.2 km/h 83 % 0.00 in /  0 mm 0 W/m2
21:15 48.0 °F /  8.9 °C 43.1 °F /  6.2 °C 29.34 in /  993.5 hPa Calm   1.0 mph /  1.6 km/h 83 % 0.00 in /  0 mm 0 W/m2
21:20 48.0 °F /  8.9 °C 43.4 °F /  6.3 °C 29.34 in /  993.5 hPa NW 2.0 mph /  3.2 km/h 7.0 mph /  11.3 km/h 84 % 0.00 in /  0 mm 0 W/m2
21:25 47.8 °F /  8.8 °C 43.2 °F /  6.2 °C 29.34 in /  993.5 hPa Calm   1.0 mph /  1.6 km/h 84 % 0.00 in /  0 mm 0 W/m2
21:30 47.7 °F /  8.7 °C 43.4 °F /  6.3 °C 29.34 in /  993.5 hPa WNW 2.0 mph /  3.2 km/h 5.0 mph /  8 km/h 85 % 0.00 in /  0 mm 0 W/m2
21:35 47.7 °F /  8.7 °C 43.4 °F /  6.3 °C 29.34 in /  993.5 hPa WNW 2.0 mph /  3.2 km/h 11.0 mph /  17.7 km/h 85 % 0.00 in /  0 mm 0 W/m2
21:40 47.8 °F /  8.8 °C 43.9 °F /  6.6 °C 29.35 in /  993.8 hPa West 7.0 mph /  11.3 km/h 12.0 mph /  19.3 km/h 86 % 0.00 in /  0 mm 0 W/m2
21:45 48.0 °F /  8.9 °C 43.7 °F /  6.5 °C 29.35 in /  993.8 hPa West 2.0 mph /  3.2 km/h 8.0 mph /  12.9 km/h 85 % 0.00 in /  0 mm 0 W/m2
21:50 48.4 °F /  9.1 °C 44.1 °F /  6.7 °C 29.35 in /  993.8 hPa SW 6.0 mph /  9.7 km/h 10.0 mph /  16.1 km/h 85 % 0.00 in /  0 mm 0 W/m2
21:55 48.6 °F /  9.2 °C 44.3 °F /  6.8 °C 29.35 in /  993.8 hPa SW 6.0 mph /  9.7 km/h 9.0 mph /  14.5 km/h 85 % 0.00 in /  0 mm 0 W/m2
22:00 48.7 °F /  9.3 °C 44.1 °F /  6.7 °C 29.35 in /  993.8 hPa West 5.0 mph /  8 km/h 8.0 mph /  12.9 km/h 84 % 0.00 in /  0 mm 0 W/m2
22:05 48.6 °F /  9.2 °C 43.9 °F /  6.6 °C 29.36 in /  994.1 hPa West 5.0 mph /  8 km/h 7.0 mph /  11.3 km/h 84 % 0.00 in /  0 mm 0 W/m2
22:10 48.6 °F /  9.2 °C 43.6 °F /  6.4 °C 29.36 in /  994.1 hPa WSW 4.0 mph /  6.4 km/h 7.0 mph /  11.3 km/h 83 % 0.00 in /  0 mm 0 W/m2
22:15 48.4 °F /  9.1 °C 43.5 °F /  6.4 °C 29.36 in /  994.1 hPa WSW 7.0 mph /  11.3 km/h 11.0 mph /  17.7 km/h 83 % 0.00 in /  0 mm 0 W/m2
22:20 48.4 °F /  9.1 °C 43.5 °F /  6.4 °C 29.36 in /  994.1 hPa WSW 5.0 mph /  8 km/h 8.0 mph /  12.9 km/h 83 % 0.00 in /  0 mm 0 W/m2
22:25 48.4 °F /  9.1 °C 43.5 °F /  6.4 °C 29.36 in /  994.1 hPa SW 5.0 mph /  8 km/h 9.0 mph /  14.5 km/h 83 % 0.00 in /  0 mm 0 W/m2
22:30 48.2 °F /  9 °C 43.0 °F /  6.1 °C 29.36 in /  994.1 hPa SW 3.0 mph /  4.8 km/h 5.0 mph /  8 km/h 82 % 0.00 in /  0 mm 0 W/m2
22:35 48.0 °F /  8.9 °C 42.8 °F /  6 °C 29.36 in /  994.1 hPa SW 3.0 mph /  4.8 km/h 5.0 mph /  8 km/h 82 % 0.00 in /  0 mm 0 W/m2
22:40 47.8 °F /  8.8 °C 42.9 °F /  6.1 °C 29.36 in /  994.1 hPa SW 4.0 mph /  6.4 km/h 8.0 mph /  12.9 km/h 83 % 0.00 in /  0 mm 0 W/m2
22:45 47.8 °F /  8.8 °C 42.6 °F /  5.9 °C 29.36 in /  994.1 hPa WSW 4.0 mph /  6.4 km/h 12.0 mph /  19.3 km/h 82 % 0.00 in /  0 mm 0 W/m2
22:50 47.7 °F /  8.7 °C 42.8 °F /  6 °C 29.36 in /  994.1 hPa WSW 6.0 mph /  9.7 km/h 9.0 mph /  14.5 km/h 83 % 0.00 in /  0 mm 0 W/m2
22:55 47.7 °F /  8.7 °C 42.4 °F /  5.8 °C 29.36 in /  994.1 hPa WSW 4.0 mph /  6.4 km/h 8.0 mph /  12.9 km/h 82 % 0.00 in /  0 mm 0 W/m2
23:00 47.5 °F /  8.6 °C 42.6 °F /  5.9 °C 29.36 in /  994.1 hPa SW 3.0 mph /  4.8 km/h 5.0 mph /  8 km/h 83 % 0.00 in /  0 mm 0 W/m2
23:05 47.3 °F /  8.5 °C 42.4 °F /  5.8 °C 29.36 in /  994.1 hPa SW 5.0 mph /  8 km/h 9.0 mph /  14.5 km/h 83 % 0.00 in /  0 mm 0 W/m2
23:10 47.1 °F /  8.4 °C 42.2 °F /  5.7 °C 29.36 in /  994.1 hPa SW 3.0 mph /  4.8 km/h 4.0 mph /  6.4 km/h 83 % 0.00 in /  0 mm 0 W/m2
23:15 47.1 °F /  8.4 °C 42.2 °F /  5.7 °C 29.36 in /  994.1 hPa WSW 6.0 mph /  9.7 km/h 8.0 mph /  12.9 km/h 83 % 0.00 in /  0 mm 0 W/m2
23:20 46.9 °F /  8.3 °C 42.0 °F /  5.6 °C 29.36 in /  994.1 hPa SW 6.0 mph /  9.7 km/h 9.0 mph /  14.5 km/h 83 % 0.00 in /  0 mm 0 W/m2
23:25 47.1 °F /  8.4 °C 42.2 °F /  5.7 °C 29.36 in /  994.1 hPa SW 7.0 mph /  11.3 km/h 8.0 mph /  12.9 km/h 83 % 0.00 in /  0 mm 0 W/m2
23:30 47.1 °F /  8.4 °C 42.2 °F /  5.7 °C 29.36 in /  994.1 hPa SW 6.0 mph /  9.7 km/h 10.0 mph /  16.1 km/h 83 % 0.00 in /  0 mm 0 W/m2
23:35 47.3 °F /  8.5 °C 42.7 °F /  5.9 °C 29.36 in /  994.1 hPa SW 6.0 mph /  9.7 km/h 9.0 mph /  14.5 km/h 84 % 0.00 in /  0 mm 0 W/m2
23:40 47.1 °F /  8.4 °C 42.2 °F /  5.7 °C 29.36 in /  994.1 hPa WSW 6.0 mph /  9.7 km/h 10.0 mph /  16.1 km/h 83 % 0.00 in /  0 mm 0 W/m2
23:45 47.1 °F /  8.4 °C 42.5 °F /  5.8 °C 29.36 in /  994.1 hPa SW 6.0 mph /  9.7 km/h 8.0 mph /  12.9 km/h 84 % 0.00 in /  0 mm 0 W/m2
23:50 46.9 °F /  8.3 °C 42.4 °F /  5.8 °C 29.36 in /  994.1 hPa SW 4.0 mph /  6.4 km/h 6.0 mph /  9.7 km/h 84 % 0.00 in /  0 mm 0 W/m2
23:55 46.6 °F /  8.1 °C 42.0 °F /  5.6 °C 29.36 in /  994.1 hPa SW 6.0 mph /  9.7 km/h 9.0 mph /  14.5 km/h 84 % 0.00 in /  0 mm 0 W/m2
Delerius-Weather
Compliments of Weather Underground - 2.25 mb

Data updates at regular intervals.